Résultats de la course

07 sept. 2019

Jogging des JTP Blancs Gilets

GASTUCHE

:
389
:
ROMAIN PAUL

VIRGINIE VANDROOGENBROECK


# Type de course Dossard Nom Prénom Club Catégorie Temps
1 Grande 4004 PAUL ROMAIN JTP BLANCS GILETS M/20-29 00:40:22
2 Grande 1557 DEMEULEMEESTER GUILLAUME TRAIN 7 M/30-39 00:40:38
3 Grande 138 HEUNINCK ALEXANDRE MYSTERE M/30-39 00:42:13
4 Grande 402 SNEESSENS MICHAEL RUNATTITUDE M/30-39 00:42:20
5 Grande 89 DESCAMPE ARNAUD TRAIN 7 M/30-39 00:42:28
6 Grande 4458 MOUREAU KEVIN JAMES M/30-39 00:42:35
7 Grande 2978 PUTZEYS MATHIEU TRAIN 7 M/40-49 00:43:37
8 Grande 1440 VAN WETTER RENAUD TRAIN 7 M/40-49 00:43:39
9 Grande 2385 IWENS ALAIN HOOIBERGLOPERS M/50-59 00:43:41
10 Grande 7248 SMETS HUGO CEPAL M/20-29 00:43:55
11 Grande 7222 MARTIN SIMON M/15-19 00:43:58
12 Grande 765 BUIS QUENTIN RONVAU M/30-39 00:44:22
13 Grande 3172 NOUAMANI MOHAMMED JOGGANS M/40-49 00:44:28
14 Grande 7214 SURAY DAMIEN M/30-39 00:44:50
15 Grande 7221 CROES GERALD M/20-29 00:45:00
16 Grande 3481 RADDOUX JONATHAN HWJ HOEGARDEN M/20-29 00:45:33
17 Grande 7251 VANDEN BOSSCHE PHILIPPE M/50-59 00:45:39
18 Grande 3244 DOHMEN CHRISTOPHE M/40-49 00:45:52
19 Grande 1120 VERHELPEN OLIVIER TRAINING 7 -RIWA M/20-29 00:46:01
20 Grande 2475 VANDROOGENBROECK VIRGINIE JTP BLANCS GILETS F/40-49 00:46:22
21 Grande 3400 CNOCQUART SEBASTIEN M/40-49 00:46:42
22 Grande 964 DI VINCENZO PASCAL JAMES M/40-49 00:47:04
23 Grande 4852 SOENENS KEVIN M/40-49 00:47:07
24 Grande 2362 THORE MARTIN FURALOPE M/50-59 00:47:09
25 Grande 7187 RUELLE JEAN ENJAMBEE M/40-49 00:47:11
26 Grande 4896 MARTINEZ DAVID RUNNIN GREZ M/30-39 00:47:17
27 Grande 2792 DEMUYT RAPHAEL CEPAL M/40-49 00:47:33
28 Grande 1632 GIGOT JACQUES CEPAL M/50-59 00:47:35
29 Grande 7160 DANCETTE ELODIE CEPAL F/30-39 00:47:38
30 Grande 1859 VANDERZWALMEN SABINE BORN TO RUN F/30-39 00:47:49
31 Grande 1942 DE PRA DAMIEN TRAINING 7 -RIWA M/30-39 00:48:44
32 Grande 3007 DEPOUILLE HENRI-FRANCOIS CSF M/40-49 00:49:07
33 Grande 792 WOODWARD LOGAN ENJAMBEE M/15-19 00:49:10
34 Grande 2676 DARGE OLIVIER M/50-59 00:49:11
35 Grande 2683 DE PRINS JEAN-FRANCOIS TRAINING 7 -RIWA M/20-29 00:49:15
36 Grande 3298 MARTIN YVES HUPPSALAOTTENBURG M/40-49 00:49:20
37 Grande 7177 VANDERLINDEN LOIC JET M/30-39 00:49:22
38 Grande 1984 LEPLAE CHARLES M/30-39 00:49:27
39 Grande 7183 BENALI SAID KURISTO M/50-59 00:49:34
40 Grande 2536 NOULARD OLIVER JE COURS A INCOURT M/30-39 00:49:55
41 Grande 1280 WALRAVENS BENOIT JE COURS A INCOURT M/30-39 00:49:57
42 Grande 4868 SEUTIN JEAN MARC M/50-59 00:50:11
43 Grande 1235 LABBE JEAN MARIE M/50-59 00:50:29
44 Grande 2483 LECLERC ROMAIN TRAINING 7 -RIWA M/40-49 00:50:43
45 Grande 2834 KASPRZYK KRZYSZTOF M/40-49 00:50:57
46 Grande 2075 GAUSSET OLIVIER AXA TEAM M/50-59 00:51:05
47 Grande 502 VAUDOISEY PASCAL RCB M/50-59 00:51:11
48 Grande 1918 VAN CAMP JEAN FRANCOIS POTOS M/40-49 00:51:15
49 Grande 7170 VANDENBOSCH GEOFFREY M/30-39 00:51:23
50 Grande 712 SCHREURS SEBASTIEN URBAN TRI TEAM M/40-49 00:51:26
51 Grande 2744 PUTTENEERS SEBASTIEN ROS M/20-29 00:51:27
52 Grande 2602 BORCHGRAEVE GILLES M/20-29 00:51:29
53 Grande 412 MONTERO PIERRE AXA TEAM M/50-59 00:51:32
54 Grande 410 MONTOISY LOUISE TRAIN 7 F/20-29 00:51:34
55 Grande 7171 HENRY STEPHANE M/30-39 00:51:35
56 Grande 1073 SEGUY DENIS CEPAL M/50-59 00:51:36
57 Grande 3048 MONTOISY GUILLAUME TRAIN 7 M/30-39 00:51:37
58 Grande 7161 DEHOVE LUC CEPAL M/40-49 00:51:41
59 Grande 1832 MICHOTTE MARC KURISTO M/50-59 00:51:47
60 Grande 7184 PETITJE MATHIEU M/30-39 00:51:50
61 Grande 194 MARTIN BRUNO JOG GAST M/40-49 00:52:02
62 Grande 374 OYARZABAL JONATHAN SPT WAVRE M/30-39 00:52:08
63 Grande 2480 RAVYTS ALAIN JTP BLANCS GILETS M/50-59 00:52:13
64 Grande 7197 WIJNANTS JOHAN FURALOPE M/50-59 00:52:16
65 Grande 993 CULLOP PAUL ENJAMBEE M/50-59 00:52:25
66 Grande 2702 PADOVANO QUENTIN CEPAL M/30-39 00:52:27
67 Grande 3972 DE BONDT MICHEL M/50-59 00:52:32
68 Grande 226 SLIMANI KARIM M/30-39 00:52:36
69 Grande 4908 NAVEAU THOMAS M/30-39 00:52:37
70 Grande 7241 WAUCAMPT DENIS M/40-49 00:52:56
71 Grande 3245 VAN LIERDE JEREMY M/30-39 00:52:57
72 Grande 4069 MORALES RAFAEL SWIFT M/50-59 00:53:12
73 Grande 7203 KHLII ADNANE JET M/30-39 00:53:18
74 Grande 401 DE GRAVE OLIVIER MYSTERE M/50-59 00:53:21
75 Grande 7179 WILLEM ALEXANDRE M/40-49 00:53:36
76 Grande 215 DEVICK EMILY NAC F/40-49 00:53:38
77 Grande 3359 VERSCHUEREN NICOLAS M/20-29 00:54:07
78 Grande 358 KAMP OLIVIER MAGICOS M/40-49 00:54:14
79 Grande 7247 COUPIN PATRICK M/40-49 00:54:24
80 Grande 2526 BERDEN MICHEL M/60-69 00:54:30
81 Grande 7218 BOUVIER-GAZ JET M/30-39 00:54:36
82 Grande 3952 VAN POUCKE JOSE IND M/60-69 00:54:48
83 Grande 3997 D ANGELO AMERINO ZATAC CHARLEROI M/50-59 00:54:50
84 Grande 2099 DECLERCQ JOE CEPAL M/60-69 00:54:57
85 Grande 36 GEORGE CHRISTINE SBT F/40-49 00:55:03
86 Grande 7192 BOTMAN LOUIS PHILIPPE M/30-39 00:55:04
87 Grande 7174 NIHOUL BENOIT M/50-59 00:55:11
88 Grande 1058 GHYSSELINCKX CHRISTOPHE JAMES M/40-49 00:55:16
89 Grande 4120 CASTANHEIRA SERGIO M/30-39 00:55:24
90 Grande 406 WELLENS GUIDO SPVI M/60-69 00:55:25
91 Grande 2272 DAMSTEN THIERRY M/50-59 00:55:34
92 Grande 4930 NATALIS LAURA CSF F/30-39 00:55:46
93 Grande 884 SCHEPERS ANDRE TEAM MAHIA M/40-49 00:55:47
94 Grande 4084 NOEL MATHIS JE COURS A INCOURT M/15-19 00:56:00
95 Grande 7175 BODART ANNE JTP BLANCS GILETS F/40-49 00:56:02
96 Grande 7176 VERTRUYEN MARC M/50-59 00:56:03
97 Grande 3063 FALLIER STEPHANE TEAM MAHIA M/40-49 00:56:09
98 Grande 159 LETELLIER JEAN LUC M/50-59 00:56:15
99 Grande 3853 LISSENS DANIEL DEMARSIN M/70-+ 00:56:32
100 Grande 7252 DEBOM THOMAS M/20-29 00:56:34
101 Grande 4490 PLETINCKX SYLVIE JET F/40-49 00:56:40
102 Grande 4010 DEMEY KEVIN FURALOPE M/40-49 00:56:41
103 Grande 251 NOEL CHRISTOPHE JE COURS A INCOURT M/40-49 00:56:52
104 Grande 1318 LACAILLE GUY TITAN M/60-69 00:56:52
105 Grande 4821 FAIVRE STEPHANE M/20-29 00:56:58
106 Grande 7195 FOBE JEAN-JACQUES RWSAC M/50-59 00:57:03
107 Grande 7207 HONY FLORENT ENJAMBEE M/30-39 00:57:16
108 Grande 4365 THOREAU SYLVAIN M/30-39 00:57:19
109 Grande 3346 SIRAGUSA VINCENZO M/15-19 00:57:22
110 Grande 7167 FOBE ROMAIN CNSW M/15-19 00:57:24
111 Grande 2390 PERMENTIER DELPHINE JCPMFMONT ST GUIBERT F/40-49 00:57:25
112 Grande 131 DEWILDE DIMITRI RUNNIN GREZ M/40-49 00:57:27
113 Grande 111 FAVETTE ASTRID SPT WAVRE F/30-39 00:57:28
114 Grande 7166 MARCHAND ARNAUD M/30-39 00:57:29
115 Grande 1936 PAULUS YVES JC OETINGEN M/40-49 00:57:35
116 Grande 2520 LIBERT DANIEL ANTILOB M/50-59 00:57:55
117 Grande 2186 VAN PASSEL JAN KAPSALONLUC M/50-59 00:58:02
118 Grande 3697 PITMAN STEVE M/60-69 00:58:03
119 Grande 1765 LOTTE AYRTON M/20-29 00:58:05
120 Grande 721 HENDERYCKX PIERRE FRANCOIS RUNNIN GREZ M/50-59 00:58:06
121 Grande 7165 HOUART PATRICK LES COUREURS ORPOIS M/50-59 00:58:06
122 Grande 4875 PEROO DAVID JCPMFMONT ST GUIBERT M/40-49 00:58:09
123 Grande 1779 VAN BAMIS CLAUDE M/60-69 00:58:22
124 Grande 2999 VAN VELTHEM RAPHAEL JET M/30-39 00:58:24
125 Grande 2123 PIRSON FLORENCE TRAINING 7 -RIWA F/40-49 00:58:31
126 Grande 3742 MENU ERIC TOUSPORT1 M/50-59 00:58:55
127 Grande 3869 COUTELLIER FREDERIC M/40-49 00:59:02
128 Grande 3982 BAIX CORINNE CEPAL F/30-39 00:59:08
129 Grande 1049 WOROU MARIE-LAURENCE CEPAL F/50-59 00:59:11
130 Grande 7193 FLOON FREDERIC M/40-49 00:59:21
131 Grande 819 LECUIVRE CORINNE KURISTO F/40-49 00:59:25
132 Grande 2084 JABER ALICIA JCPMF GENAPPE F/30-39 00:59:34
133 Grande 1403 BACHMANN MARC RUNNIN GREZ M/50-59 00:59:42
134 Grande 537 MOERMAN JONAS RONVAU M/40-49 00:59:47
135 Grande 2734 DERMIENS OLIVIER JCPMFMONT ST GUIBERT M/40-49 00:59:48
136 Grande 2695 NEEFS BERT HWJ HOEGARDEN M/50-59 00:59:51
137 Grande 7250 MICHAUX BERNARD RC TIENE M/50-59 00:59:52
138 Grande 2269 EL BOUJDAINI MOHAMED JOG BEER M/60-69 01:00:11
139 Grande 4040 FRANTZEN STEPHANE M/50-59 01:00:12
140 Grande 4610 DESMET XAVIER JTP BLANCS GILETS M/50-59 01:00:13
141 Grande 175 HECK LUDOVIC M/20-29 01:00:16
142 Grande 7245 BEMELMANS FREDERIC M/40-49 01:00:23
143 Grande 7162 VAN ZEEBROECK VICTOR M/15-19 01:00:24
144 Grande 1153 PALUMBO AGOSTINO KURISTO M/40-49 01:00:24
145 Grande 2714 BULPA ANDRE JCPMFMONT ST GUIBERT M/60-69 01:00:26
146 Grande 7189 CARLIER NOAH M/15-19 01:00:26
147 Grande 4863 SERRE EMMANUELLE F/40-49 01:00:29
148 Grande 1031 LEGAT VINCENT JAMES M/50-59 01:00:34
149 Grande 1320 SOSMAN EDDY NAC M/50-59 01:00:49
150 Grande 7213 CAULLET OLIVIER TURBO M/50-59 01:00:55
151 Grande 149 GILLET CHRISTIAN SBT M/50-59 01:00:58
152 Grande 2178 MIDDEL INE ROBA F/60-69 01:01:12
153 Grande 2172 MAUS JAN ROBA M/60-69 01:01:27
154 Grande 3584 DEMARET SOPHIE FFBC F/20-29 01:01:39
155 Grande 4822 NUNES DA SILVA THOMAS M/30-39 01:01:40
156 Grande 3132 VANDENBROECKE MARC RUN4VILLERS M/50-59 01:01:48
157 Grande 1763 WARIN DIDIER BELGRAVE M/50-59 01:01:54
158 Grande 3138 COLASSE DIDIER M/40-49 01:01:58
159 Grande 1088 GODEFRIDI THIERRY M/60-69 01:02:16
160 Grande 1759 COTTIN DENIS RUN4VILLERS M/40-49 01:02:23
161 Grande 2796 VANHALLE FRANCOIS-XAVIER RUN4VILLERS M/30-39 01:02:23
162 Grande 1774 BOSQUET MICHEL JAMES M/50-59 01:02:32
163 Grande 2101 HAESEBROUCK GILLES M/40-49 01:02:38
164 Grande 1820 PINDEVILLE CHRISTIAN TRAINING 7 -RIWA M/70-+ 01:02:58
165 Grande 37 LEVACQ GUY LDLV M/70-+ 01:03:12
166 Grande 1053 MACHADO ANTONIO RONVAU M/60-69 01:03:40
167 Grande 4766 THOMAS FABRICE JTP BLANCS GILETS M/50-59 01:03:43
168 Grande 490 GROSSEN ROLANDE TEND DET F/70-+ 01:03:47
169 Grande 2805 VERHAEGEN KURT HOOIBERGLOPERS M/40-49 01:03:48
170 Grande 1299 ROMBAUT VINCENT RUNNIN GREZ M/40-49 01:03:53
171 Grande 4447 DEMORTIER JEAN-FRANCOIS JAMES M/40-49 01:03:57
172 Grande 13 POULAIN ROLAND RONVAU M/70-+ 01:04:04
173 Grande 2847 CUTHBERT DOMINIC M/40-49 01:04:06
174 Grande 69 DE MEESTER THIERRY JAMES M/40-49 01:04:20
175 Grande 1817 RADDOUX HUGO HWJ HOEGARDEN M/60-69 01:04:32
176 Grande 7249 ZARUALI AMIN M/30-39 01:04:34
177 Grande 3956 DEJONGHE JEAN-PAUL JAMES M/60-69 01:04:37
178 Grande 216 ROBERT MAURICE M/50-59 01:04:45
179 Grande 2651 MACKONIENE INGA JAMES F/40-49 01:05:00
180 Grande 3726 JAMSIN GEOFFREY M/40-49 01:05:06
181 Grande 7219 CLAIN CAMILLE M/30-39 01:05:07
182 Grande 3518 LEPINE JEAN-LOUIS JAMES M/50-59 01:05:08
183 Grande 2597 TIELEMANS PHILIPPE RUN4VILLERS M/50-59 01:05:09
184 Grande 1406 ANDRIES VIRGINIE JE COURS A INCOURT F/50-59 01:05:16
185 Grande 3005 VANPEE ALAIN JE COURS A INCOURT M/60-69 01:05:17
186 Grande 836 MASSONET PHILIPPE BELGRAVE M/50-59 01:05:27
187 Grande 7244 GERICKE PHILIPPE M/40-49 01:05:34
188 Grande 1108 LELOUP STEPHAN TRAINING 7 -RIWA M/60-69 01:05:44
189 Grande 385 TILMAN GUSTAVE M/70-+ 01:05:46
190 Grande 1018 HUBER REGINA ENJAMBEE F/50-59 01:05:48
191 Grande 7205 KOSTAS XIROGIANIS M/40-49 01:05:51
192 Grande 4874 VANDERHOEVEN PATRICK FURALOPE M/40-49 01:05:52
193 Grande 1225 THIRD IAN M/60-69 01:05:55
194 Grande 2327 MELARD JEAN-LUC JAMES M/60-69 01:05:57
195 Grande 3134 BEKEN RIKA FURALOPE F/40-49 01:06:05
196 Grande 1927 GERARD PASCAL JCPMFRAMILLIES M/50-59 01:06:05
197 Grande 7209 VAN LAER YVES M/50-59 01:06:06
198 Grande 348 CLOOSTERMANS PATRICE KURISTO M/60-69 01:06:12
199 Grande 7194 GERARD SIMON M/30-39 01:06:13
200 Grande 2517 ROZENBLAT STEPHANE NAC M/50-59 01:06:15
201 Grande 4006 FACON ALEXIA KURISTO F/15-19 01:06:17
202 Grande 7180 STREBELLE MANON LES COUREURS ORPOIS F/15-19 01:06:28
203 Grande 7208 PROVENAZ FABRICE ENJAMBEE M/50-59 01:06:29
204 Grande 7206 CERNA PETRA ENJAMBEE F/40-49 01:06:33
205 Grande 7223 GEORGES PATRICE M/50-59 01:06:33
206 Grande 63 DUMOULIN PHILIPPE RUNNIN GREZ M/50-59 01:06:35
207 Grande 1661 COUTELLIER MARIE LOUISE ESM F/60-69 01:06:36
208 Grande 7198 PIROTTE ALAIN M/50-59 01:06:37
209 Grande 7204 DECAFFMEYER THIBAULT M/30-39 01:06:39
210 Grande 1343 MARGOT JAN BELGACOM M/60-69 01:07:05
211 Grande 4240 RONSMANS ALAIN RUNNIN GREZ M/40-49 01:07:11
212 Grande 2494 DEBRUYN THIERRY JAMES M/50-59 01:07:26
213 Grande 3274 VANDERGEETEN XAVIER JE COURS A INCOURT M/40-49 01:07:29
214 Grande 780 DAVID DIDIER M/50-59 01:07:54
215 Grande 3264 RONDOU PHILIPPE JCPMF GENAPPE M/50-59 01:07:57
216 Grande 426 MARCQ KARL TOUSPORT1 M/60-69 01:08:07
217 Grande 3633 KIN LAURENCE JCPMF GENAPPE F/50-59 01:08:10
218 Grande 4887 LUYTEN FABIENNE JCPMF GENAPPE F/50-59 01:08:10
219 Grande 722 FONTAINE BERNARD KURISTO M/50-59 01:08:15
220 Grande 7243 LIFRANGE MARC-OLIVIER ENJAMBEE M/50-59 01:08:17
221 Grande 1703 GOUDMAEKER CLAUDE JE COURS A INCOURT M/50-59 01:08:19
222 Grande 7185 BUCHLER SIMON M/20-29 01:08:21
223 Grande 2583 CIARMOLI JOSEPH JAMES M/50-59 01:08:28
224 Grande 7212 TESSE ANNE SOPHIE JAMES F/40-49 01:08:30
225 Grande 7173 COSTERMANS VIRGINIE F/40-49 01:08:33
226 Grande 3718 VERDEYEN BRUNO M/30-39 01:08:38
227 Grande 7210 MICHOTTE MARIE F/20-29 01:08:42
228 Grande 3093 JACOBS QUENTIN M/30-39 01:08:53
229 Grande 4819 VANBAELEN BERENGERE JCPMFMONT ST GUIBERT F/30-39 01:08:55
230 Grande 7181 DANS ETIENNE M/50-59 01:08:57
231 Grande 1693 GOWIE CHRISTIAN M/60-69 01:09:25
232 Grande 2803 HEYMANS VALERIE JAMES F/50-59 01:09:27
233 Grande 1684 NGUYEN EMILIE JCPMFORME F/30-39 01:09:29
234 Grande 4912 DE THIER PASCAL M/50-59 01:09:31
235 Grande 3546 SOENEN JOSE M/60-69 01:09:35
236 Grande 2895 DEMARET NATHALIE JCPMF GENAPPE F/30-39 01:09:44
237 Grande 4562 PIRAUX DOMINIQUE JAMES M/60-69 01:09:46
238 Grande 760 POLOME ALAIN M/50-59 01:09:47
239 Grande 7217 POLOME MANON F/20-29 01:09:47
240 Grande 3255 DE GREZ THIERRY JAMES M/60-69 01:09:50
241 Grande 4059 HENNEBICQ SOPHIE F/20-29 01:09:59
242 Grande 2917 LACROIX FLORENCE JCPMF GENAPPE F/40-49 01:10:18
243 Grande 2627 WOUTERS QUENTIN RONVAU M/20-29 01:10:31
244 Grande 1421 GOENS LINDA OEH F/60-69 01:10:40
245 Grande 1948 GEERAERTS JOS MYSTERE M/50-59 01:10:54
246 Grande 4072 VERBRAEKEN NICOLAS M/40-49 01:10:58
247 Grande 505 SEGGIO PINO NAC M/70-+ 01:11:01
248 Grande 4888 IBRAHIM SOPHIE CEPAL F/30-39 01:11:03
249 Grande 4889 GREGOIRE ELODIE CEPAL F/20-29 01:11:04
250 Grande 816 HERION ERIC M/40-49 01:11:07
251 Grande 2838 NOIZET MARIE ALICE ROS F/50-59 01:11:31
252 Grande 3050 MARTIN PHILIPPE M/60-69 01:11:35
253 Grande 7168 TROJANER SLAWOMIRA M/30-39 01:11:38
254 Grande 66 SYMONS PETRO NAC M/60-69 01:11:41
255 Grande 990 MORRIS NICOLA-ELIZABETH ENJAMBEE F/50-59 01:11:43
256 Grande 171 TURNEER ROGER USBW ROAD TEAM M/70-+ 01:11:46
257 Grande 1868 JANNE D OTHEE FRANCOIS M/60-69 01:12:05
258 Grande 1106 DUPUIS BENOIT JAMES M/60-69 01:12:12
259 Grande 3030 TEMSAMANI ABDELHAK RUNNIN GREZ M/50-59 01:12:12
260 Grande 7182 DEBOUCQ MICHEL M/50-59 01:12:15
261 Grande 1301 VANBEVER LISE RUNNIN GREZ F/40-49 01:12:16
262 Grande 7191 NEMERY ANNICK JCPMFORP JAUCHE F/50-59 01:12:20
263 Grande 322 VANDERLINDEN DANIEL M/40-49 01:12:21
264 Grande 2584 VANDER LINDEN VERONIQUE RUNNIN GREZ F/50-59 01:12:24
265 Grande 7246 VERHEYE GILLES M/30-39 01:12:25
266 Grande 51 CLAES MICHEL JE COURS A INCOURT M/50-59 01:12:26
267 Grande 2624 FEYAERTS MARC JE COURS A INCOURT M/50-59 01:12:27
268 Grande 840 CLAES VINCENT M/40-49 01:12:30
269 Grande 3817 LOUIS PHILIPPE RESC M/50-59 01:12:32
270 Grande 623 SAUERTEIG KARIN CEPAL F/40-49 01:13:24
271 Grande 7190 DECRE ALAIN M/40-49 01:13:43
272 Grande 4911 DE HEMPTINNE PASCAL RUNNIN GREZ F/50-59 01:13:50
273 Grande 45 MELOTTE AXELLE JE COURS A INCOURT F/40-49 01:13:50
274 Grande 2840 THIBAUT THIERRY JET M/50-59 01:14:00
275 Grande 7169 VAN VRECKEM FREDERIK M/40-49 01:14:04
276 Grande 2743 KEIMEUL CATHERINE ROS F/50-59 01:14:14
277 Grande 860 AUTEQUITTE BENEDICTE ROS F/50-59 01:14:17
278 Grande 512 PANNEELS JEAN-JACQUES AXA TEAM M/60-69 01:14:18
279 Grande 804 VOKAR ETIENNE USBW ROAD TEAM M/70-+ 01:14:26
280 Grande 4942 BLIN XAVIER M/40-49 01:14:28
281 Grande 3054 GIET PASCALE RUNNIN GREZ F/50-59 01:14:31
282 Grande 1230 PARMESAN SANDRO TRAINING 7 -RIWA M/50-59 01:14:49
283 Grande 7242 RAMAEKERS GENEVIEVE GSKFUNCLUB F/50-59 01:15:16
284 Grande 413 DUCHENE JEAN PIERRE RONVAU M/60-69 01:15:33
285 Grande 4227 PECHEUR MURIELLE RUNNIN GREZ F/50-59 01:15:46
286 Grande 3822 MOLLE MICHAEL WPRC M/40-49 01:16:07
287 Grande 4804 NAZIR NABILA F/30-39 01:16:18
288 Grande 7196 UYTTEBROEK CATHERINE F/30-39 01:16:20
289 Grande 3215 LEVECQ MATHIAS CABW M/15-19 01:16:26
290 Grande 7172 NORI RACHIDA SPT WAVRE F/40-49 01:16:31
291 Grande 53 COOSEMANS ISABELLE JET F/40-49 01:16:31
292 Grande 50 GEHU CHRISTELLE JE COURS A INCOURT F/15-19 01:16:33
293 Grande 1006 PHILIPPON JEAN PAUL ANIMAUX EN PERIL M/60-69 01:16:35
294 Grande 3180 DA SILVA ISABEL F/40-49 01:16:51
295 Grande 1976 FRISQUE EVELINE F/30-39 01:16:53
296 Grande 3370 SKHIR NOUFISSA JTP BLANCS GILETS F/50-59 01:16:56
297 Grande 1105 SIMONS BENOIT JE COURS A INCOURT M/70-+ 01:17:09
298 Grande 1410 COOREMAN CHRISTOPHE JCPMFMONT ST GUIBERT M/40-49 01:17:23
299 Grande 4791 PLETINCKX DIMITRI M/40-49 01:17:23
300 Grande 3589 GILLIOT ALAIN JCPMFMONT ST GUIBERT M/50-59 01:17:25
301 Grande 1729 BROYNINCKX ALAIN JCPMFMONT ST GUIBERT M/40-49 01:17:26
302 Grande 4308 LOCUS DANIELLE JAMES F/50-59 01:17:28
303 Grande 1610 ROBIN ALEX JCPMFMONT ST GUIBERT M/40-49 01:17:29
304 Grande 3994 DE ZEINE GWEN M/40-49 01:17:31
305 Grande 2040 VAN DE VIJVERE ANN JAMES F/40-49 01:17:31
306 Grande 2659 DELHAYE JEAN-CHARLES FRANCKYS TEAM M/50-59 01:17:32
307 Grande 4194 LAMY ERIC JAMES M/50-59 01:17:34
308 Grande 907 DUPIRE ANGELIQUE JAMES F/40-49 01:17:36
309 Grande 2109 PAGE THIBAUT JE COURS A INCOURT M/30-39 01:17:37
310 Grande 674 DE MEES MARC HOOIBERGLOPERS M/70-+ 01:17:38
311 Grande 4191 LAHAYE OLIVIER RUNNIN GREZ M/50-59 01:17:39
312 Grande 847 VANDERBECQ ARIANE F/40-49 01:17:45
313 Grande 105 HUPPE STEPHANE RONVAU M/60-69 01:17:45
314 Grande 4781 DE LATTER LAURENCE LES COUREURS ORPOIS F/40-49 01:17:55
315 Grande 3597 WAYEMBERGH JULIE RUNNIN GREZ F/40-49 01:18:03
316 Grande 3408 DEFERIERE JULIE JAMES F/40-49 01:18:06
317 Grande 3635 HENNUY ODILE JCPMF GENAPPE F/50-59 01:18:06
318 Grande 1282 KUYPERS EDDY JAMES M/60-69 01:18:08
319 Grande 3047 JOPPART CHRISTINA COUROBAR F/40-49 01:18:16
320 Grande 7199 VERZELE DORIAN M/30-39 01:18:27
321 Grande 2804 REY NANCY F/50-59 01:18:42
322 Grande 4779 COLLIN CINDY NAC F/20-29 01:18:48
323 Grande 7178 RICHIL NATANAELLE F/30-39 01:19:10
324 Grande 3643 VELGHE CLAUDE M/50-59 01:19:17
325 Grande 7163 DE BACK ROGIER M/40-49 01:19:18
326 Grande 893 VAN CRAENENBROECK PASCAL LDLV M/50-59 01:19:29
327 Grande 161 DUVIVIER CHRISTINE JAMES F/50-59 01:19:42
328 Grande 1645 CHELLI MARIA F/50-59 01:19:44
329 Grande 4777 SAX LAURIE NAC F/30-39 01:19:55
330 Grande 2684 DE VILLE SABRINA JET F/40-49 01:20:10
331 Grande 1241 KEYMOLEN ROGER JC OETINGEN M/60-69 01:20:15
332 Grande 1252 DEBUSSCHER ANNE RUNNIN GREZ F/50-59 01:20:20
333 Grande 7164 DOCQUIER RUDI SPORT&FUN M/50-59 01:20:22
334 Grande 7211 DEVOS JEAN-DANIEL M/50-59 01:20:23
335 Grande 205 DECOSTER MICHEL M/60-69 01:20:31
336 Grande 3505 BORSUS ELISABETH TRAINING 7 -RIWA F/30-39 01:20:51
337 Grande 3504 DANDOY AURELIE TRAINING 7 -RIWA F/30-39 01:21:03
338 Grande 4126 MARTIN PIERRE TRAINING 7 -RIWA M/60-69 01:21:19
339 Grande 1002 LAUNAY VIRGINIE TRAINING 7 -RIWA F/50-59 01:21:38
340 Grande 154 PENNINCK DOMINIQUE KURISTO M/60-69 01:21:40
341 Grande 3306 VANCAMPENHOUT SAMMY SPVI F/30-39 01:21:42
342 Grande 7200 CARLIER AMANDINE F/20-29 01:22:01
343 Grande 1891 EVRARD JOSIANNE TRAINING 7 -RIWA F/60-69 01:22:23
344 Grande 1199 VANHUFFELEN JOSSELINE AXA TEAM F/60-69 01:23:02
345 Grande 2244 TCHEKEMIAN NICOLE ROS F/70-+ 01:23:03
346 Grande 4018 DUMONT BRIGITTE JCPMF GENAPPE F/50-59 01:23:16
347 Grande 1869 BUYENS JOHAN BAV M/60-69 01:23:54
348 Grande 2665 MEEREMANS IVAN JC OETINGEN M/60-69 01:24:02
349 Grande 2869 GAIGNAGE ISABELLE NAC F/40-49 01:25:05
350 Grande 485 VLAMINCK GEORGET TEND DET M/70-+ 01:25:09
351 Grande 7220 BOUBNAN NAJET F/20-29 01:25:15
352 Grande 2386 VAN GORP ISABELLE RONVAU F/40-49 01:25:18
353 Grande 4879 DE CONINCK PATRICIA JCPMFMONT ST GUIBERT F/40-49 01:25:26
354 Grande 3866 GUIOT NATHALIE F/50-59 01:25:48
355 Grande 3744 VANSTEENKISTE NADINE WPRC F/50-59 01:26:16
356 Grande 3429 DEVOS ANTHONY M/50-59 01:26:17
357 Grande 1045 PAULUS MARC JC OETINGEN M/60-69 01:26:26
358 Grande 24 TROIA GIOVANNA ENJAMBEE F/50-59 01:26:31
359 Grande 1026 DE VYLDER LUC AXA TEAM M/60-69 01:26:34
360 Grande 7188 ALBERT TRISTAN M/15-19 01:27:38
361 Grande 3703 VANPARYS MICHEL JAMES M/50-59 01:28:13
362 Grande 823 VANDEREYD ERIC M/60-69 01:28:13
363 Grande 2984 DEVILLERS SOPHIE JAMES F/40-49 01:29:11
364 Grande 7186 HENNEBO CARINE JAMES F/50-59 01:29:36
365 Grande 7216 BOSMANS MAGALIE JTP BLANCS GILETS F/30-39 01:30:11
366 Grande 7215 VANDERSTRAETEN JOHAN M/40-49 01:30:12
367 Grande 904 KEVERS SENIOR JEAN FRANCOIS NAC M/70-+ 01:31:07
368 Grande 3501 DUCHENNE MARTINE JAMES F/50-59 01:32:35
369 Grande 1357 MORTIER FREDERIC CACE M/40-49 01:34:28
370 Grande 585 MARCOEN MARC RONVAU M/70-+ 01:35:00
371 Grande 2642 DELVAUX YVES WINTERTH M/60-69 01:35:00
372 Grande 407 FINE PAUL RCB M/60-69 01:35:00
373 Grande 70 CAZALLE CELINE NAC F/40-49 01:35:00
374 Grande 2095 MELCHIOR FABIENNE NAC F/50-59 01:35:00
375 Grande 3904 PALUMBO APHRODITA F/40-49 01:35:00
376 Grande 1448 PALUMBO MARIA KURISTO F/60-69 01:35:00
377 Grande 377 BEBE JEAN-ALFRED RCB M/70-+ 01:35:00
378 Grande 2609 MORIS LAURENT RCB M/40-49 01:35:00
379 Grande 751 LEFEBVRE MARINE MYSTERE F/20-29 01:35:00
380 Grande 1929 DECAMP MARTINE JCPMF GENAPPE F/60-69 01:35:00
381 Grande 1788 HAINE MARIE JOSE KAPSALONLUC F/50-59 01:35:00
382 Grande 963 HEMELEERS MARIE SPVI F/60-69 01:35:00
383 Grande 515 DECLERCQ MICHAEL SPVI M/40-49 01:35:00
384 Grande 2153 DE LANGE JOHAN SPVI M/50-59 01:35:00
385 Grande 2181 MOONS SANDRA SPVI F/40-49 01:35:00
386 Grande 2857 STROOBANTS PAUL SPVI M/60-69 01:35:00
387 Grande 2117 VAN HORICK BRUNO JCPMF GENAPPE M/30-39 01:35:00
388 Grande 1864 BORGWALD LUDWIG KAPSALONLUC M/60-69 01:35:00
389 Grande 22 DENIS MARCEL RONVAU M/70-+ 01:35:00